createdAt,value
2022-09-15T00:02:08.497Z,13.20
2022-09-15T00:07:07.778Z,13.10
2022-09-15T00:12:08.426Z,13.10
2022-09-15T00:17:07.935Z,13.00
2022-09-15T00:22:06.838Z,13.00
2022-09-15T00:27:06.422Z,13.00
2022-09-15T00:32:08.378Z,12.92
2022-09-15T00:37:08.439Z,12.90
2022-09-15T00:42:08.744Z,12.90
2022-09-15T00:47:20.002Z,12.90
2022-09-15T00:52:27.143Z,12.90
2022-09-15T00:57:38.457Z,12.98
2022-09-15T01:02:40.499Z,13.00
2022-09-15T01:07:44.805Z,13.02
2022-09-15T01:12:45.112Z,13.10
2022-09-15T01:18:01.350Z,13.10
2022-09-15T01:23:36.588Z,13.10
2022-09-15T01:29:12.048Z,13.10
2022-09-15T01:34:19.972Z,13.10
2022-09-15T01:39:26.278Z,13.10
2022-09-15T01:44:30.301Z,13.10
2022-09-15T01:49:36.455Z,13.10
2022-09-15T01:54:41.723Z,13.10
2022-09-15T01:59:40.992Z,13.10
2022-09-15T02:04:48.890Z,13.10
2022-09-15T02:09:57.585Z,13.10
2022-09-15T02:15:08.029Z,13.10
2022-09-15T02:20:18.223Z,13.10
2022-09-15T02:25:23.842Z,13.10
2022-09-15T02:30:25.350Z,13.10
2022-09-15T02:35:26.283Z,13.10
2022-09-15T02:40:26.746Z,13.10
2022-09-15T02:45:27.127Z,13.10
2022-09-15T02:50:27.448Z,13.10
2022-09-15T02:55:27.391Z,13.10
2022-09-15T03:00:26.334Z,13.10
2022-09-15T03:05:28.726Z,13.10
2022-09-15T03:10:29.546Z,13.10
2022-09-15T03:15:29.960Z,13.18
2022-09-15T03:20:30.630Z,13.20
2022-09-15T03:25:29.946Z,13.30
2022-09-15T03:30:29.236Z,13.30
2022-09-15T03:35:28.356Z,13.40
2022-09-15T03:40:27.386Z,13.40
2022-09-15T03:45:27.470Z,13.50
2022-09-15T03:50:27.158Z,13.50
2022-09-15T03:55:26.272Z,13.60
2022-09-15T04:00:26.695Z,13.60
2022-09-15T04:05:26.042Z,13.60
2022-09-15T04:10:25.784Z,13.70
2022-09-15T04:15:25.969Z,13.70
2022-09-15T04:20:25.994Z,13.70
2022-09-15T04:25:25.978Z,13.76
2022-09-15T04:30:25.167Z,13.80
2022-09-15T04:35:25.403Z,13.80
2022-09-15T04:40:24.297Z,13.72
2022-09-15T04:45:23.918Z,13.80
2022-09-15T04:50:22.703Z,13.80
2022-09-15T04:55:22.648Z,13.74
2022-09-15T05:00:23.455Z,13.70
2022-09-15T05:05:23.478Z,13.70
2022-09-15T05:10:23.124Z,13.70
2022-09-15T05:15:24.397Z,13.80
2022-09-15T05:20:24.814Z,13.80
2022-09-15T05:25:25.561Z,13.80
2022-09-15T05:30:44.404Z,13.80
2022-09-15T05:35:53.230Z,13.80
2022-09-15T05:40:53.444Z,13.80
2022-09-15T05:46:00.114Z,13.80
2022-09-15T05:50:59.933Z,13.90
2022-09-15T05:56:02.676Z,13.90
2022-09-15T06:01:11.329Z,13.90
2022-09-15T06:06:12.175Z,14.00
2022-09-15T06:11:15.318Z,14.00
2022-09-15T06:16:19.810Z,14.00
2022-09-15T06:21:23.348Z,14.10
2022-09-15T06:26:23.246Z,14.20
2022-09-15T06:31:25.775Z,14.30
2022-09-15T06:36:27.389Z,14.40
2022-09-15T06:41:35.353Z,14.50
2022-09-15T06:46:46.355Z,14.54
2022-09-15T06:51:46.106Z,14.60
2022-09-15T06:56:46.866Z,14.68
2022-09-15T07:01:46.377Z,14.70
2022-09-15T07:06:45.519Z,14.80
2022-09-15T07:11:45.898Z,14.90
2022-09-15T07:16:45.234Z,15.00
2022-09-15T07:21:44.879Z,15.00
2022-09-15T07:26:44.331Z,15.10
2022-09-15T07:31:43.232Z,15.20
2022-09-15T07:36:42.498Z,15.30
2022-09-15T07:41:41.317Z,15.40
2022-09-15T07:46:40.230Z,15.50
2022-09-15T07:51:39.853Z,15.52
2022-09-15T07:56:39.487Z,15.70
2022-09-15T08:01:38.162Z,15.82
2022-09-15T08:06:37.030Z,15.98
2022-09-15T08:11:36.004Z,16.10
2022-09-15T08:16:35.236Z,16.20
2022-09-15T08:21:34.715Z,16.40
2022-09-15T08:26:36.394Z,16.50
2022-09-15T08:31:36.101Z,16.60
2022-09-15T08:36:35.568Z,16.80
2022-09-15T08:41:39.518Z,17.00
2022-09-15T08:46:44.902Z,17.10
2022-09-15T08:51:50.537Z,17.30
2022-09-15T08:56:50.166Z,17.42
2022-09-15T09:02:05.750Z,17.54
2022-09-15T09:07:21.843Z,17.68
2022-09-15T09:12:42.011Z,17.84
2022-09-15T09:18:13.367Z,18.00
2022-09-15T09:23:16.495Z,18.18
2022-09-15T09:28:40.226Z,18.44
2022-09-15T09:33:51.252Z,18.70
2022-09-15T09:38:52.376Z,18.90
2022-09-15T09:43:53.193Z,18.90
2022-09-15T09:49:00.315Z,19.10
2022-09-15T09:54:07.751Z,19.50
2022-09-15T09:59:18.733Z,19.50
2022-09-15T10:04:24.243Z,19.40
2022-09-15T10:09:24.238Z,19.20
2022-09-15T10:14:30.767Z,19.10
2022-09-15T10:19:33.325Z,19.10
2022-09-15T10:24:44.307Z,19.14
2022-09-15T10:29:44.116Z,19.50
2022-09-15T10:34:48.889Z,19.80
2022-09-15T10:39:56.634Z,19.70
2022-09-15T10:45:12.506Z,19.50
2022-09-15T10:50:23.708Z,19.22
2022-09-15T10:55:52.748Z,19.10
2022-09-15T11:01:12.709Z,19.20
2022-09-15T11:06:25.572Z,19.20
2022-09-15T11:11:36.349Z,19.12
2022-09-15T11:16:59.775Z,19.00
2022-09-15T11:22:05.824Z,18.80
2022-09-15T11:27:15.817Z,18.98
2022-09-15T11:32:22.425Z,19.22
2022-09-15T11:37:28.271Z,19.40
2022-09-15T11:42:34.653Z,19.40
2022-09-15T11:47:41.564Z,19.44
2022-09-15T11:52:59.461Z,19.54
2022-09-15T11:58:17.363Z,19.60
2022-09-15T12:03:30.809Z,19.46
2022-09-15T12:08:38.855Z,19.50
2022-09-15T12:13:41.110Z,19.70
2022-09-15T12:18:49.044Z,20.00
2022-09-15T12:24:08.267Z,20.40
2022-09-15T12:29:33.211Z,20.30
2022-09-15T12:34:40.688Z,19.88
2022-09-15T12:39:46.119Z,19.60
2022-09-15T12:44:52.265Z,19.40
2022-09-15T12:50:05.752Z,19.38
2022-09-15T12:55:09.269Z,19.70
2022-09-15T13:00:42.483Z,19.70
2022-09-15T13:06:20.255Z,19.30
2022-09-15T13:11:27.289Z,19.18
2022-09-15T13:16:35.309Z,19.30
2022-09-15T13:21:39.649Z,19.50
2022-09-15T13:26:39.702Z,19.50
2022-09-15T13:31:56.079Z,19.40
2022-09-15T13:42:59.176Z,19.30
2022-09-15T13:48:27.448Z,19.18
2022-09-15T13:53:43.238Z,18.90
2022-09-15T13:58:56.276Z,18.70
2022-09-15T14:04:04.891Z,18.60
2022-09-15T14:09:11.269Z,18.70
2022-09-15T14:14:23.069Z,19.00
2022-09-15T14:19:35.496Z,19.30
2022-09-15T14:24:41.562Z,19.40
2022-09-15T14:29:45.010Z,19.30
2022-09-15T14:39:56.854Z,18.90
2022-09-15T14:50:20.276Z,18.74
2022-09-15T14:55:25.490Z,18.80
2022-09-15T15:00:34.237Z,18.80
2022-09-15T15:05:43.944Z,18.80
2022-09-15T15:10:45.530Z,18.70
2022-09-15T15:15:46.035Z,18.70
2022-09-15T15:20:53.562Z,18.62
2022-09-15T15:26:16.072Z,18.60
2022-09-15T15:31:22.418Z,18.50
2022-09-15T15:36:26.134Z,18.30
2022-09-15T15:41:29.058Z,18.20
2022-09-15T15:46:54.826Z,18.10
2022-09-15T15:51:55.984Z,17.98
2022-09-15T15:56:57.027Z,17.90
2022-09-15T16:01:59.627Z,17.80
2022-09-15T16:06:59.923Z,17.84
2022-09-15T16:11:58.534Z,17.94
2022-09-15T16:16:58.681Z,17.90
2022-09-15T16:21:57.497Z,17.80
2022-09-15T16:26:57.175Z,17.70
2022-09-15T16:31:56.516Z,17.50
2022-09-15T16:36:55.691Z,17.40
2022-09-15T16:41:54.883Z,17.30
2022-09-15T16:46:54.485Z,17.20
2022-09-15T16:51:53.504Z,17.10
2022-09-15T16:56:52.905Z,17.06
2022-09-15T17:01:52.731Z,17.00
2022-09-15T17:06:52.232Z,16.90
2022-09-15T17:11:51.952Z,16.90
2022-09-15T17:16:53.117Z,16.80
2022-09-15T17:21:53.582Z,16.80
2022-09-15T17:26:52.436Z,16.70
2022-09-15T17:31:51.996Z,16.62
2022-09-15T17:36:53.034Z,16.60
2022-09-15T17:41:52.192Z,16.50
2022-09-15T17:46:51.914Z,16.40
2022-09-15T17:51:51.819Z,16.30
2022-09-15T17:56:50.901Z,16.20
2022-09-15T18:01:53.026Z,16.10
2022-09-15T18:06:54.806Z,16.00
2022-09-15T18:16:58.363Z,15.90
2022-09-15T18:21:58.878Z,15.80
2022-09-15T18:26:58.666Z,15.80
2022-09-15T18:31:59.636Z,15.70
2022-09-15T18:36:59.206Z,15.70
2022-09-15T18:41:58.576Z,15.70
2022-09-15T18:46:57.386Z,15.70
2022-09-15T18:51:56.790Z,15.70
2022-09-15T18:56:56.553Z,15.70
2022-09-15T19:01:58.236Z,15.70
2022-09-15T19:06:59.000Z,15.60
2022-09-15T19:11:57.621Z,15.60
2022-09-15T19:16:58.446Z,15.60
2022-09-15T19:21:58.123Z,15.52
2022-09-15T19:26:56.766Z,15.50
2022-09-15T19:31:55.787Z,15.50
2022-09-15T19:36:54.616Z,15.42
2022-09-15T19:41:54.757Z,15.40
2022-09-15T19:46:54.776Z,15.40
2022-09-15T19:51:55.670Z,15.38
2022-09-15T19:56:55.418Z,15.30
2022-09-15T20:01:54.918Z,15.30
2022-09-15T20:06:55.189Z,15.26
2022-09-15T20:11:57.654Z,15.20
2022-09-15T20:17:00.984Z,15.20
2022-09-15T20:22:02.176Z,15.10
2022-09-15T20:27:02.474Z,15.10
2022-09-15T20:32:02.421Z,15.00
2022-09-15T20:37:03.354Z,15.00
2022-09-15T20:42:04.098Z,14.90
2022-09-15T20:47:05.235Z,14.80
2022-09-15T20:52:05.807Z,14.70
2022-09-15T20:57:06.531Z,14.60
2022-09-15T21:02:06.310Z,14.50
2022-09-15T21:07:06.363Z,14.40
2022-09-15T21:12:07.711Z,14.30
2022-09-15T21:17:07.829Z,14.20
2022-09-15T21:22:07.770Z,14.10
2022-09-15T21:27:25.577Z,14.00
2022-09-15T21:32:27.489Z,13.80
2022-09-15T21:37:29.073Z,13.70
2022-09-15T21:42:31.424Z,13.60
2022-09-15T21:47:32.119Z,13.50
2022-09-15T21:52:32.629Z,13.40
2022-09-15T21:57:32.031Z,13.30
2022-09-15T22:02:32.277Z,13.20
2022-09-15T22:07:32.960Z,13.02
2022-09-15T22:12:32.900Z,12.90
2022-09-15T22:17:32.385Z,12.80
2022-09-15T22:22:34.701Z,12.70
2022-09-15T22:27:34.807Z,12.60
2022-09-15T22:32:34.504Z,12.50
2022-09-15T22:37:35.629Z,12.40
2022-09-15T22:42:36.310Z,12.38
2022-09-15T22:47:38.105Z,12.30
2022-09-15T22:52:37.868Z,12.20
2022-09-15T22:57:39.731Z,12.20
2022-09-15T23:02:40.074Z,12.10
2022-09-15T23:07:39.643Z,12.10
2022-09-15T23:12:38.968Z,12.02
2022-09-15T23:17:39.190Z,12.00
2022-09-15T23:22:39.508Z,11.90
2022-09-15T23:27:38.326Z,11.90
2022-09-15T23:32:38.245Z,11.90
2022-09-15T23:37:37.781Z,11.90
2022-09-15T23:42:37.392Z,11.90
2022-09-15T23:47:36.486Z,11.90
2022-09-15T23:52:36.040Z,11.90
2022-09-15T23:57:35.343Z,11.90
